Time;durP1;ratioP1;P1;durP2;ratioP2;P2;SDS_P1;SDS_P2;PMS_P1;PMS_P2;Temp;Humidity;BMP_temperature;BMP_pressure;BME280_temperature;BME280_humidity;BME280_pressure;Samples;Min_cycle;Max_cycle;Signal;HPM_P1;HPM_P2
2023/09/02 00:00:01;;;;;;;11.67;10.57;;;21.10;91.30;;;21.57;56.76;95344.72;5038063;28;21367;-69
2023/09/02 00:02:28;;;;;;;10.17;9.20;;;21.00;91.40;;;21.54;57.13;95355.00;5036868;28;20461;-58
2023/09/02 00:04:55;;;;;;;11.53;10.57;;;21.00;91.50;;;21.51;57.03;95350.88;5037588;28;20503;-59
2023/09/02 00:07:23;;;;;;;17.73;11.53;;;21.00;91.50;;;21.48;57.24;95346.69;5036497;28;20522;-58
2023/09/02 00:09:50;;;;;;;12.50;11.20;;;21.00;91.60;;;21.45;57.05;95347.06;5039437;28;20486;-57
2023/09/02 00:12:19;;;;;;;12.90;11.60;;;21.00;91.50;;;21.44;57.28;95348.13;5037554;28;20491;-57
2023/09/02 00:14:46;;;;;;;10.33;9.53;;;20.90;91.70;;;21.42;57.17;95346.66;5038591;28;21008;-66
2023/09/02 00:17:13;;;;;;;11.13;10.13;;;20.90;91.60;;;21.39;57.34;95347.84;5035643;28;20447;-56
2023/09/02 00:19:43;;;;;;;11.13;10.03;;;20.90;91.90;;;21.38;57.38;95348.91;5036108;28;20542;-67
2023/09/02 00:22:10;;;;;;;10.87;9.80;;;20.90;92.00;;;21.36;57.35;95348.25;5041108;28;20457;-67
2023/09/02 00:24:38;;;;;;;10.37;9.43;;;20.80;91.90;;;21.35;57.42;95343.94;5039174;28;20944;-67
2023/09/02 00:27:06;;;;;;;11.27;10.17;;;20.80;92.00;;;21.35;57.52;95351.13;5037334;28;20461;-68
2023/09/02 00:29:34;;;;;;;11.67;10.60;;;20.80;92.00;;;21.33;57.52;95347.81;5042882;28;20499;-60
2023/09/02 00:32:02;;;;;;;11.53;10.37;;;20.80;92.20;;;21.32;57.89;95347.00;5039862;28;20459;-61
2023/09/02 00:34:29;;;;;;;11.53;10.03;;;20.80;92.20;;;21.30;57.60;95341.00;5035105;28;20895;-68
2023/09/02 00:36:56;;;;;;;17.23;10.53;;;20.80;92.30;;;21.30;57.65;95354.38;5039270;28;20440;-57
2023/09/02 00:39:23;;;;;;;11.63;10.53;;;20.80;92.40;;;21.27;57.56;95346.75;5035713;28;20546;-67
2023/09/02 00:41:52;;;;;;;12.87;11.17;;;20.80;92.40;;;21.25;57.52;95349.63;5039169;28;20452;-56
2023/09/02 00:44:20;;;;;;;12.10;11.00;;;20.80;92.40;;;21.25;57.83;95346.94;5038283;28;21106;-67
2023/09/02 00:46:48;;;;;;;12.57;10.73;;;20.70;92.30;;;21.23;57.57;95348.19;5035424;28;20496;-67
2023/09/02 00:49:16;;;;;;;10.97;9.97;;;20.70;92.40;;;21.23;57.61;95356.19;5038968;28;20475;-66
2023/09/02 00:51:43;;;;;;;11.33;10.23;;;20.70;92.40;;;21.22;57.73;95351.84;5035516;28;20498;-67
2023/09/02 00:54:10;;;;;;;11.70;10.53;;;20.70;92.50;;;21.21;57.67;95348.38;5039204;28;20486;-67
2023/09/02 00:56:38;;;;;;;11.70;10.50;;;20.70;92.50;;;21.20;57.95;95352.06;5038871;28;20449;-66
2023/09/02 00:59:11;;;;;;;10.67;9.80;;;20.70;92.60;;;21.19;57.59;95354.94;5037705;28;20499;-66
2023/09/02 01:01:40;;;;;;;11.27;10.27;;;20.70;92.40;;;21.16;58.22;95363.34;5030645;28;20484;-66
2023/09/02 01:04:09;;;;;;;13.90;10.50;;;20.60;92.60;;;21.14;57.89;95353.66;5039106;28;20464;-67
2023/09/02 01:06:37;;;;;;;10.77;9.77;;;20.70;92.60;;;21.13;57.56;95359.19;5043860;28;21028;-57
2023/09/02 01:09:05;;;;;;;11.20;10.20;;;20.60;92.50;;;21.12;58.00;95353.03;5033167;28;20503;-65
2023/09/02 01:11:34;;;;;;;11.00;10.00;;;20.60;92.60;;;21.10;58.03;95348.88;5038414;28;20478;-58
2023/09/02 01:14:01;;;;;;;11.43;10.23;;;20.60;92.60;;;21.09;57.86;95353.41;5038551;28;20541;-56
2023/09/02 01:16:29;;;;;;;12.43;11.30;;;20.60;92.70;;;21.07;57.91;95344.75;5040951;28;20448;-56
2023/09/02 01:18:56;;;;;;;10.33;9.43;;;20.60;92.80;;;21.07;58.30;95346.63;5038025;28;20471;-65
2023/09/02 01:22:03;;;;;;;12.00;10.90;;;20.50;93.00;;;21.06;58.59;95347.63;5038029;28;20456;-66
2023/09/02 01:24:49;;;;;;;10.73;9.73;;;20.60;93.00;;;21.04;58.55;95347.00;5018706;28;20471;-57
2023/09/02 01:27:24;;;;;;;13.43;11.67;;;20.60;93.00;;;21.04;58.17;95344.34;5038261;28;20525;-56
2023/09/02 01:29:57;;;;;;;11.70;10.70;;;20.50;93.10;;;21.03;58.32;95348.03;5034288;28;20518;-58
2023/09/02 01:32:27;;;;;;;11.47;10.20;;;20.50;93.10;;;21.01;58.37;95348.22;5038028;28;20553;-68
2023/09/02 01:34:55;;;;;;;11.77;10.23;;;20.50;93.10;;;21.01;58.29;95352.75;5039331;28;20481;-64
2023/09/02 01:37:22;;;;;;;17.40;10.60;;;20.50;93.20;;;20.99;57.93;95349.41;5042132;28;20480;-58
2023/09/02 01:39:50;;;;;;;12.53;11.40;;;20.50;93.20;;;20.98;58.04;95351.28;5037661;28;20503;-66
2023/09/02 01:42:17;;;;;;;19.37;10.80;;;20.50;93.20;;;20.95;58.51;95341.78;5034940;28;20552;-64
2023/09/02 01:44:46;;;;;;;10.77;9.87;;;20.50;93.40;;;20.95;58.43;95354.31;5037826;28;21044;-57
2023/09/02 01:47:14;;;;;;;11.17;10.17;;;20.40;93.20;;;20.93;58.37;95357.19;5034081;28;20487;-57
2023/09/02 01:49:41;;;;;;;12.50;11.30;;;20.40;93.20;;;20.91;58.51;95356.56;5034440;28;20483;-66
2023/09/02 01:52:08;;;;;;;12.40;11.30;;;20.40;93.40;;;20.89;58.58;95361.25;5038816;28;20444;-66
2023/09/02 01:54:36;;;;;;;12.47;11.30;;;20.40;93.50;;;20.88;58.73;95361.44;5033114;28;20464;-58
2023/09/02 01:57:03;;;;;;;11.83;10.63;;;20.40;93.50;;;20.87;58.76;95360.63;5034460;28;20443;-57
2023/09/02 01:59:31;;;;;;;15.20;11.97;;;20.40;93.60;;;20.86;58.77;95358.97;5041284;28;20502;-57
2023/09/02 02:02:00;;;;;;;12.63;11.40;;;20.30;93.60;;;20.84;58.83;95360.19;5037623;28;20460;-58
2023/09/02 02:04:34;;;;;;;12.47;10.90;;;20.30;93.70;;;20.82;58.79;95359.53;5041415;28;20483;-58
2023/09/02 02:07:04;;;;;;;15.20;12.03;;;20.40;93.60;;;20.80;58.84;95364.25;5033870;28;20557;-61
2023/09/02 02:09:34;;;;;;;12.57;11.37;;;20.30;93.70;;;20.77;58.77;95365.47;5034667;28;20853;-57
2023/09/02 02:12:02;;;;;;;12.33;11.03;;;20.30;93.80;;;20.76;58.91;95364.66;5034276;28;20515;-57
2023/09/02 02:14:32;;;;;;;13.17;11.87;;;20.30;93.90;;;20.73;59.17;95367.69;5036725;28;20507;-66
2023/09/02 02:17:03;;;;;;;12.53;10.87;;;20.20;94.00;;;20.70;58.67;95365.41;5032248;28;20544;-66
2023/09/02 02:19:30;;;;;;;12.93;11.60;;;20.20;93.60;;;20.65;58.95;95367.84;5036563;28;20631;-57
2023/09/02 02:21:58;;;;;;;12.00;10.90;;;20.20;93.70;;;20.62;58.84;95370.84;5035659;28;20984;-57
2023/09/02 02:24:25;;;;;;;11.53;10.47;;;20.10;93.90;;;20.60;59.01;95362.19;5036309;28;20560;-67
2023/09/02 02:26:53;;;;;;;10.97;9.97;;;20.10;93.90;;;20.56;59.44;95360.94;5033799;28;20495;-65
2023/09/02 02:29:20;;;;;;;14.40;10.50;;;20.10;93.90;;;20.55;59.09;95372.63;5038904;28;20543;-65
2023/09/02 02:31:47;;;;;;;11.63;10.50;;;20.10;93.90;;;20.51;59.29;95366.00;5037310;28;20475;-57
2023/09/02 02:34:16;;;;;;;11.53;10.17;;;20.10;94.00;;;20.48;59.18;95369.03;5040787;28;20475;-65
2023/09/02 02:36:43;;;;;;;13.23;11.83;;;20.00;93.90;;;20.45;59.21;95372.94;5040077;28;20467;-67
2023/09/02 02:39:10;;;;;;;11.50;10.50;;;20.00;93.90;;;20.41;59.16;95364.44;5037326;28;20789;-66
2023/09/02 02:41:38;;;;;;;11.30;10.30;;;19.90;94.00;;;20.39;59.19;95366.50;5033112;28;20483;-66
2023/09/02 02:44:06;;;;;;;11.97;10.77;;;19.90;94.10;;;20.37;59.43;95370.38;5035602;28;20467;-67
2023/09/02 02:46:33;;;;;;;12.40;11.10;;;19.90;94.10;;;20.36;59.33;95364.19;5041302;28;20916;-58
2023/09/02 02:49:00;;;;;;;11.30;10.20;;;19.90;94.10;;;20.33;59.72;95359.22;5040943;28;20472;-57
2023/09/02 02:51:29;;;;;;;14.23;10.50;;;19.80;94.10;;;20.31;59.03;95368.44;5039508;28;20987;-58
2023/09/02 02:53:56;;;;;;;15.23;10.67;;;19.80;94.00;;;20.28;59.29;95364.31;5041893;28;20486;-57
2023/09/02 02:56:23;;;;;;;11.20;10.10;;;19.80;94.00;;;20.23;59.31;95374.72;5037483;28;20810;-57
2023/09/02 02:58:51;;;;;;;13.70;11.50;;;19.80;94.00;;;20.21;59.40;95372.25;5039899;28;20468;-66
2023/09/02 03:01:18;;;;;;;10.97;9.97;;;19.70;94.10;;;20.18;59.62;95366.44;5039198;28;20470;-65
2023/09/02 03:03:46;;;;;;;10.70;9.80;;;19.70;94.20;;;20.15;59.75;95375.66;5036813;28;20548;-57
2023/09/02 03:06:17;;;;;;;11.57;10.37;;;19.70;94.30;;;20.14;59.56;95373.16;5037026;28;20492;-58
2023/09/02 03:08:46;;;;;;;12.13;10.93;;;19.70;94.30;;;20.09;59.76;95378.25;5037568;28;20527;-58
2023/09/02 03:11:13;;;;;;;16.10;10.70;;;19.70;94.40;;;20.08;59.78;95373.91;5040168;28;20509;-65
2023/09/02 03:13:40;;;;;;;12.83;11.67;;;19.60;94.40;;;20.05;59.68;95378.63;5037830;28;20476;-57
2023/09/02 03:16:08;;;;;;;15.43;11.10;;;19.60;94.40;;;20.00;59.95;95386.38;5040139;28;20881;-57
2023/09/02 03:18:35;;;;;;;10.80;9.80;;;19.60;94.40;;;19.97;59.92;95380.56;5039408;28;20472;-60
2023/09/02 03:21:03;;;;;;;12.50;11.40;;;19.50;94.50;;;19.93;59.61;95380.13;5039554;28;20467;-65
2023/09/02 03:23:30;;;;;;;12.63;11.40;;;19.50;94.60;;;19.90;59.87;95375.16;5036429;28;20527;-58
2023/09/02 03:26:07;;;;;;;11.37;10.37;;;19.50;94.70;;;19.88;59.96;95369.16;5037816;28;20483;-57
2023/09/02 03:28:34;;;;;;;13.83;11.80;;;19.50;94.70;;;19.83;60.47;95376.88;5040245;28;20846;-66
2023/09/02 03:31:07;;;;;;;12.57;11.20;;;19.40;94.80;;;19.79;60.35;95372.94;5036527;28;20463;-65
2023/09/02 03:33:34;;;;;;;12.23;11.10;;;19.30;94.90;;;19.75;59.87;95384.97;5037183;28;20988;-67
2023/09/02 03:36:01;;;;;;;12.33;11.03;;;19.30;95.00;;;19.73;60.02;95384.34;5036354;28;20451;-65
2023/09/02 03:38:28;;;;;;;12.67;11.37;;;19.30;95.10;;;19.71;60.66;95388.00;5039711;28;20865;-66
2023/09/02 03:40:58;;;;;;;13.60;9.90;;;19.30;95.30;;;19.70;60.58;95385.50;5039106;28;20464;-66
2023/09/02 03:43:25;;;;;;;12.03;10.93;;;19.20;95.40;;;19.68;60.79;95387.56;5036797;28;20464;-58
2023/09/02 03:45:52;;;;;;;13.93;10.83;;;19.20;95.40;;;19.67;60.42;95385.88;5042323;28;20460;-64
2023/09/02 03:48:20;;;;;;;11.60;10.47;;;19.20;95.80;;;19.67;61.18;95400.06;5036402;28;20554;-57
2023/09/02 03:51:03;;;;;;;12.53;11.37;;;19.20;95.50;;;19.67;60.94;95394.75;5043171;28;20460;-57
2023/09/02 03:53:31;;;;;;;12.83;11.30;;;19.20;95.70;;;19.67;60.78;95402.75;5035142;28;20507;-65
2023/09/02 03:56:00;;;;;;;16.03;11.20;;;19.20;95.60;;;19.66;60.80;95401.06;5036986;28;20457;-59
2023/09/02 03:58:29;;;;;;;13.53;11.30;;;19.20;95.70;;;19.64;61.10;95400.44;5038876;28;20475;-57
2023/09/02 04:00:56;;;;;;;12.20;10.93;;;19.20;95.80;;;19.64;61.08;95397.78;5036376;28;20835;-59
2023/09/02 04:03:24;;;;;;;12.97;11.27;;;19.20;95.80;;;19.65;61.11;95398.59;5037689;28;20506;-59
2023/09/02 04:05:51;;;;;;;18.70;12.20;;;19.20;95.80;;;19.64;61.14;95403.13;5038323;28;20460;-65
2023/09/02 04:08:21;;;;;;;12.70;11.43;;;19.20;95.80;;;19.64;61.06;95403.13;5036207;28;20464;-58
2023/09/02 04:10:51;;;;;;;12.53;11.23;;;19.20;95.90;;;19.64;61.04;95397.78;5039864;28;20448;-65
2023/09/02 04:13:23;;;;;;;12.83;11.53;;;19.20;95.90;;;19.65;61.18;95407.41;5029309;28;20472;-57
2023/09/02 04:15:51;;;;;;;12.97;11.60;;;19.20;96.10;;;19.65;61.47;95404.75;5035270;28;20555;-65
2023/09/02 04:18:18;;;;;;;18.47;12.03;;;19.20;96.00;;;19.67;61.29;95408.09;5035255;28;21016;-57
2023/09/02 04:20:45;;;;;;;15.17;10.17;;;19.20;96.10;;;19.68;60.78;95409.72;5037860;28;21076;-57
2023/09/02 04:23:12;;;;;;;14.80;10.90;;;19.20;96.10;;;19.68;61.44;95408.91;5041136;28;20537;-65
2023/09/02 04:25:47;;;;;;;15.07;11.10;;;19.20;96.00;;;19.68;61.42;95415.06;5031512;28;20456;-64
2023/09/02 04:28:14;;;;;;;14.57;11.47;;;19.20;96.00;;;19.70;61.35;95413.06;5036901;28;21082;-58
2023/09/02 04:30:43;;;;;;;18.93;11.50;;;19.20;96.10;;;19.69;60.70;95406.06;5036772;28;20965;-57
2023/09/02 04:33:10;;;;;;;16.80;11.70;;;19.30;96.00;;;19.71;61.01;95403.19;5036543;28;20875;-58
2023/09/02 04:35:38;;;;;;;13.90;11.70;;;19.30;96.10;;;19.70;61.26;95405.06;5039847;28;20887;-60
2023/09/02 04:38:05;;;;;;;15.80;10.90;;;19.20;96.10;;;19.71;60.89;95412.03;5036256;28;20518;-65
2023/09/02 04:40:32;;;;;;;12.70;11.27;;;19.30;96.10;;;19.73;61.36;95414.50;5038347;28;20455;-59
2023/09/02 04:43:00;;;;;;;13.37;12.07;;;19.30;96.30;;;19.76;61.03;95407.97;5035884;28;20540;-66
2023/09/02 04:45:27;;;;;;;14.60;11.87;;;19.30;96.10;;;19.79;61.16;95419.16;5038586;28;20479;-63
2023/09/02 04:47:56;;;;;;;16.90;12.53;;;19.30;96.30;;;19.86;61.38;95411.22;5038395;28;20488;-65
2023/09/02 04:50:23;;;;;;;14.70;11.90;;;19.40;96.30;;;19.92;61.29;95418.50;5035512;28;20493;-64
2023/09/02 04:52:50;;;;;;;15.53;12.57;;;19.40;96.10;;;19.95;61.10;95420.78;5041697;28;20452;-65
2023/09/02 04:55:19;;;;;;;15.57;11.13;;;19.50;95.90;;;19.96;60.82;95419.78;5035847;28;20457;-65
2023/09/02 04:57:46;;;;;;;17.63;12.20;;;19.50;96.00;;;20.00;60.93;95420.25;5037895;28;20522;-58
2023/09/02 05:00:15;;;;;;;14.50;11.20;;;19.50;96.10;;;20.04;61.26;95418.88;5034526;28;20479;-65
2023/09/02 05:02:46;;;;;;;19.37;13.37;;;19.60;96.20;;;20.09;60.97;95411.13;5037989;28;20927;-65
2023/09/02 05:05:14;;;;;;;20.40;14.30;;;19.60;96.00;;;20.15;60.29;95414.91;5034030;28;20481;-57
2023/09/02 05:07:41;;;;;;;19.50;13.20;;;19.70;95.90;;;20.19;60.44;95422.34;5037597;28;20499;-58
2023/09/02 05:10:09;;;;;;;16.60;13.00;;;19.70;95.70;;;20.22;60.57;95422.00;5037722;28;20988;-66
2023/09/02 05:12:36;;;;;;;16.90;13.40;;;19.80;95.60;;;20.28;59.98;95431.09;5037854;28;20521;-65
2023/09/02 05:15:05;;;;;;;17.17;13.10;;;19.80;95.60;;;20.34;60.38;95432.19;5036095;28;20566;-64
2023/09/02 05:17:32;;;;;;;22.70;12.43;;;19.80;95.60;;;20.39;60.12;95433.28;5037930;28;20499;-62
2023/09/02 05:20:00;;;;;;;27.97;12.30;;;19.90;95.50;;;20.46;60.10;95436.03;5034367;28;20472;-58
2023/09/02 05:22:30;;;;;;;20.33;11.80;;;20.00;95.40;;;20.54;59.77;95435.09;5038359;28;20452;-65
2023/09/02 05:24:57;;;;;;;18.20;12.00;;;20.00;95.30;;;20.60;59.71;95429.00;5034762;28;20472;-65
2023/09/02 05:27:24;;;;;;;14.27;12.13;;;20.10;95.20;;;20.64;59.36;95422.28;5041971;28;20551;-66
2023/09/02 05:29:51;;;;;;;14.60;11.70;;;20.10;94.90;;;20.67;59.25;95421.94;5044650;28;20546;-65
2023/09/02 05:32:19;;;;;;;22.63;11.90;;;20.20;94.70;;;20.70;59.40;95429.56;5037934;28;20894;-67
2023/09/02 05:34:46;;;;;;;14.47;10.60;;;20.20;94.60;;;20.77;59.14;95425.13;5034733;28;20476;-58
2023/09/02 05:37:13;;;;;;;16.77;11.60;;;20.30;94.80;;;20.91;58.91;95430.59;5036843;28;20995;-58
2023/09/02 05:39:42;;;;;;;12.60;11.17;;;20.40;95.00;;;21.09;58.86;95430.97;5034570;28;20469;-66
2023/09/02 05:42:09;;;;;;;14.27;12.77;;;20.50;94.80;;;21.29;58.42;95419.63;5037095;28;20452;-65
2023/09/02 05:44:37;;;;;;;15.83;10.93;;;20.70;94.50;;;21.49;58.04;95427.88;5035702;28;20899;-66
2023/09/02 05:47:04;;;;;;;19.63;11.63;;;20.90;94.30;;;21.68;57.85;95431.69;5040450;28;20602;-65
2023/09/02 05:49:35;;;;;;;15.27;12.63;;;21.00;94.10;;;21.90;57.42;95423.59;5034545;28;20468;-63
2023/09/02 05:52:04;;;;;;;11.40;10.30;;;21.30;93.90;;;22.11;56.95;95434.25;5040893;28;21366;-65
2023/09/02 05:54:31;;;;;;;16.60;12.70;;;21.50;93.50;;;22.34;56.97;95433.16;5039721;28;20477;-57
2023/09/02 05:57:00;;;;;;;18.83;12.60;;;21.70;93.20;;;22.54;55.95;95428.69;5035264;28;20530;-58
2023/09/02 05:59:27;;;;;;;13.00;11.73;;;21.90;92.70;;;22.78;56.17;95436.41;5033682;28;20473;-59
2023/09/02 06:01:56;;;;;;;12.63;11.13;;;22.10;92.30;;;22.97;55.10;95440.97;5038633;28;20949;-55
2023/09/02 06:04:23;;;;;;;15.27;10.60;;;22.30;92.20;;;23.15;55.34;95443.09;5034219;28;20464;-71
2023/09/02 06:06:51;;;;;;;13.57;10.43;;;22.50;91.60;;;23.34;54.29;95452.19;5036363;28;20484;-56
2023/09/02 06:09:18;;;;;;;17.70;11.73;;;22.70;91.30;;;23.52;53.80;95443.56;5037796;28;20473;-69
2023/09/02 06:11:45;;;;;;;13.47;10.60;;;22.90;90.70;;;23.69;54.01;95443.97;5037320;28;20468;-56
2023/09/02 06:14:14;;;;;;;15.20;10.63;;;23.00;90.20;;;23.83;52.81;95452.00;5040202;28;20479;-58
2023/09/02 06:16:41;;;;;;;11.70;10.50;;;23.10;89.40;;;23.94;52.83;95456.78;5038343;28;20479;-70
2023/09/02 06:19:09;;;;;;;12.40;10.93;;;23.30;88.70;;;24.08;53.08;95447.66;5035289;28;20525;-55
2023/09/02 06:21:37;;;;;;;11.47;10.27;;;23.40;87.90;;;24.18;52.62;95444.50;5039428;28;20468;-73
2023/09/02 06:24:05;;;;;;;11.10;10.00;;;23.50;86.70;;;24.23;52.18;95444.72;5042436;28;20488;-73
2023/09/02 06:26:32;;;;;;;10.83;9.73;;;23.60;85.90;;;24.35;52.18;95447.56;5037916;28;20464;-57
2023/09/02 06:28:59;;;;;;;11.07;9.97;;;23.70;85.60;;;24.49;51.64;95449.19;5038320;28;20498;-55
2023/09/02 06:31:28;;;;;;;10.77;9.50;;;23.80;85.40;;;24.69;51.51;95453.69;5033945;28;20451;-57
2023/09/02 06:33:55;;;;;;;10.93;9.90;;;24.00;85.00;;;24.90;51.02;95449.88;5036895;28;20491;-56
2023/09/02 06:36:22;;;;;;;10.70;9.60;;;24.20;84.30;;;25.10;50.40;95444.38;5038973;28;20512;-73
2023/09/02 06:38:51;;;;;;;9.90;9.00;;;24.40;83.20;;;25.26;50.14;95443.00;5034896;28;20526;-72
2023/09/02 06:41:18;;;;;;;10.63;9.50;;;24.50;81.70;;;25.45;50.09;95443.13;5036603;28;20486;-74
2023/09/02 06:43:46;;;;;;;10.63;9.20;;;24.80;81.00;;;25.62;49.37;95441.50;5034606;28;20476;-73
2023/09/02 06:46:16;;;;;;;10.20;9.30;;;24.90;79.70;;;25.81;49.23;95446.97;5037592;28;20526;-56
2023/09/02 06:48:45;;;;;;;9.50;8.70;;;25.10;78.70;;;26.03;48.49;95442.84;5033589;28;20972;-56
2023/09/02 06:51:12;;;;;;;10.83;9.10;;;25.20;78.00;;;26.26;48.36;95442.19;5035629;28;20826;-57
2023/09/02 06:53:40;;;;;;;10.00;9.10;;;25.50;77.50;;;26.51;47.79;95440.44;5036908;28;20475;-55
2023/09/02 06:56:08;;;;;;;9.00;8.20;;;25.70;76.30;;;26.72;47.24;95440.00;5033293;28;20455;-56
2023/09/02 06:58:36;;;;;;;9.43;8.53;;;26.00;75.30;;;26.98;47.05;95446.94;5036031;28;21320;-56
2023/09/02 07:01:03;;;;;;;11.80;9.40;;;26.20;75.30;;;27.23;46.54;95447.84;5034050;28;20917;-71
2023/09/02 07:03:31;;;;;;;9.87;8.90;;;26.50;73.40;;;27.39;45.36;95451.78;5036608;28;21004;-56
2023/09/02 07:06:06;;;;;;;10.47;9.47;;;26.70;70.90;;;27.39;45.00;95449.09;5036313;28;20451;-72
2023/09/02 07:08:33;;;;;;;10.77;9.87;;;26.70;70.40;;;27.30;45.21;95448.59;5046146;28;21015;-66
2023/09/02 07:11:01;;;;;;;10.47;9.47;;;26.70;70.30;;;27.27;45.22;95449.88;5038956;28;20482;-72
2023/09/02 07:13:28;;;;;;;414.87;31.17;;;26.70;70.40;;;27.45;45.69;95446.31;5038431;28;20486;-58
2023/09/02 07:16:01;;;;;;;10.57;7.67;;;26.70;70.70;;;27.74;45.08;95446.44;5044569;28;20533;-76
2023/09/02 07:18:29;;;;;;;9.50;8.60;;;26.90;70.10;;;28.02;44.55;95459.31;5042346;28;20544;-56
2023/09/02 07:21:00;;;;;;;13.03;8.80;;;27.20;69.80;;;28.28;44.00;95454.47;5039838;28;20976;-71
2023/09/02 07:23:28;;;;;;;13.57;10.00;;;27.50;68.50;;;28.48;44.37;95458.69;5039308;28;21051;-71
2023/09/02 07:25:56;;;;;;;15.37;10.13;;;27.80;68.10;;;28.74;43.68;95452.78;5049168;28;20788;-57
2023/09/02 07:28:24;;;;;;;9.83;8.93;;;28.00;67.60;;;29.05;43.41;95456.06;5042722;28;20631;-56
2023/09/02 07:30:51;;;;;;;11.30;8.40;;;28.20;66.90;;;29.38;42.64;95442.88;5040883;28;20444;-56
2023/09/02 07:33:18;;;;;;;9.30;8.40;;;28.50;66.30;;;29.71;42.61;95446.69;5043102;28;21032;-73
2023/09/02 07:35:46;;;;;;;9.67;8.83;;;28.90;65.30;;;30.02;42.00;95451.56;5037999;28;20516;-56
2023/09/02 07:38:13;;;;;;;9.10;8.40;;;29.20;64.00;;;30.19;40.90;95446.09;5036846;28;20609;-56
2023/09/02 07:40:42;;;;;;;9.30;8.40;;;29.40;62.60;;;30.39;41.24;95440.13;5037943;28;20456;-75
2023/09/02 07:43:09;;;;;;;9.83;8.93;;;29.70;62.10;;;30.67;40.54;95438.31;5039017;28;20291;-55
2023/09/02 07:45:36;;;;;;;9.50;8.57;;;29.90;61.90;;;30.87;39.34;95453.22;5046184;28;20235;-75
2023/09/02 07:48:04;;;;;;;7.70;7.10;;;30.10;60.10;;;30.79;39.33;95451.78;5039936;28;20230;-58
2023/09/02 07:50:31;;;;;;;9.90;9.00;;;30.10;59.20;;;30.70;39.12;95437.00;5040810;28;20205;-57
2023/09/02 07:52:59;;;;;;;11.60;9.10;;;30.10;58.80;;;30.68;38.49;95452.75;5039874;28;20209;-71
2023/09/02 07:55:27;;;;;;;14.20;8.80;;;30.10;57.80;;;30.70;39.29;95448.69;5043678;28;20205;-74
2023/09/02 07:57:57;;;;;;;8.00;7.40;;;30.20;58.00;;;30.79;39.06;95450.97;5045449;28;20209;-57
2023/09/02 08:00:24;;;;;;;7.87;7.20;;;30.30;57.90;;;30.93;38.60;95452.22;5042518;28;20288;-56
2023/09/02 08:02:51;;;;;;;12.83;8.13;;;30.60;57.60;;;31.06;38.55;95446.44;5040148;28;20213;-58
2023/09/02 08:05:19;;;;;;;13.63;8.30;;;30.70;56.80;;;31.19;38.22;95455.25;5040833;28;20205;-59
2023/09/02 08:07:46;;;;;;;9.50;8.50;;;30.90;56.50;;;31.39;37.59;95450.00;5036729;28;20265;-74
2023/09/02 08:10:13;;;;;;;10.87;8.70;;;31.00;56.50;;;31.69;37.77;95450.56;5039617;28;20617;-74
2023/09/02 08:12:42;;;;;;;9.37;7.63;;;31.20;56.60;;;32.07;37.83;95451.41;5035132;28;20213;-74
2023/09/02 08:15:11;;;;;;;13.45;8.00;;;31.50;56.30;;;32.36;36.61;95454.59;5029309;28;20237;-74
2023/09/02 08:17:38;;;;;;;7.75;7.13;;;31.90;55.40;;;32.44;35.95;95461.47;5033104;28;20297;-56
2023/09/02 08:20:08;;;;;;;12.95;7.70;;;32.10;54.00;;;32.53;36.63;95458.00;5036751;28;20229;-74
2023/09/02 08:22:36;;;;;;;9.32;7.43;;;32.30;54.50;;;32.85;36.17;95459.78;5036657;28;20275;-58
2023/09/02 08:25:04;;;;;;;9.38;7.60;;;32.60;54.00;;;33.17;36.05;95456.06;5036626;28;20225;-74
2023/09/02 08:27:31;;;;;;;17.92;7.72;;;32.90;53.80;;;33.51;35.91;95457.50;5034309;28;20605;-57
2023/09/02 08:29:59;;;;;;;9.32;7.65;;;33.30;53.10;;;33.86;35.60;95453.22;5035667;28;20243;-57
2023/09/02 08:32:30;;;;;;;7.70;7.00;;;33.70;53.10;;;34.19;34.68;95449.09;5036012;28;20213;-74
2023/09/02 08:34:57;;;;;;;9.75;7.05;;;34.10;52.30;;;34.34;34.00;95447.44;5041590;28;20583;-74
2023/09/02 08:37:24;;;;;;;8.85;7.32;;;34.30;51.40;;;34.44;33.71;95450.97;5039000;28;20209;-75
2023/09/02 08:39:52;;;;;;;10.77;7.00;;;34.40;50.70;;;34.58;33.42;95445.75;5039007;28;21075;-68
2023/09/02 08:42:19;;;;;;;17.27;6.85;;;34.50;50.50;;;34.61;33.63;95438.88;5039299;28;20197;-72
2023/09/02 08:44:47;;;;;;;7.38;6.70;;;34.50;49.80;;;34.49;33.44;95441.94;5037815;28;20228;-57
2023/09/02 08:47:15;;;;;;;10.60;6.60;;;34.30;49.50;;;34.33;33.43;95443.06;5039938;28;20208;-56
2023/09/02 08:49:43;;;;;;;8.20;7.40;;;34.20;49.40;;;34.16;32.91;95436.00;5038111;28;20233;-57
2023/09/02 08:52:11;;;;;;;11.48;7.53;;;33.80;49.70;;;34.19;33.00;95437.34;5036066;28;20201;-58
2023/09/02 08:54:38;;;;;;;7.53;7.00;;;33.70;50.10;;;34.27;33.49;95434.91;5038866;28;20224;-77
2023/09/02 08:57:06;;;;;;;5.95;5.45;;;33.70;50.50;;;34.34;33.65;95436.53;5036719;28;20270;-75
2023/09/02 08:59:34;;;;;;;8.10;6.28;;;33.70;50.00;;;34.30;32.39;95438.97;5037646;28;20232;-57
2023/09/02 09:02:01;;;;;;;6.93;6.28;;;33.70;49.30;;;34.26;33.64;95430.53;5041905;28;20208;-76
2023/09/02 09:04:32;;;;;;;6.65;6.15;;;33.70;49.70;;;34.37;33.26;95433.25;5036756;28;20221;-59
2023/09/02 09:07:01;;;;;;;9.25;7.03;;;33.70;49.80;;;34.42;32.38;95435.94;5042460;28;20196;-59
2023/09/02 09:09:27;;;;;;;6.90;6.07;;;33.70;50.00;;;34.34;32.90;95425.59;5044002;28;20229;-59
2023/09/02 09:11:54;;;;;;;6.57;6.03;;;33.70;49.40;;;34.31;33.09;95424.22;5044663;28;20189;-70
2023/09/02 09:14:22;;;;;;;7.18;6.47;;;33.70;49.40;;;34.28;32.15;95427.50;5045088;28;20227;-59
2023/09/02 09:16:50;;;;;;;10.82;6.65;;;33.60;48.80;;;34.26;33.26;95416.88;5040666;28;20204;-68
2023/09/02 09:19:18;;;;;;;9.73;7.70;;;33.50;49.40;;;34.28;33.14;95419.31;5032450;28;20226;-69
2023/09/02 09:21:45;;;;;;;11.68;5.93;;;33.60;49.30;;;34.10;32.12;95418.78;5040620;28;20678;-70
2023/09/02 09:24:14;;;;;;;6.18;5.82;;;33.50;48.70;;;34.05;32.48;95420.69;5040056;28;20796;-61
2023/09/02 09:26:43;;;;;;;7.05;6.55;;;33.30;49.00;;;33.99;32.37;95424.53;5046022;28;20255;-58
2023/09/02 09:29:12;;;;;;;16.67;6.90;;;33.30;48.50;;;33.89;32.64;95425.38;5037825;28;20237;-64
2023/09/02 09:31:40;;;;;;;8.57;6.68;;;33.10;48.70;;;33.71;33.12;95410.31;5042524;28;20208;-56
2023/09/02 09:34:07;;;;;;;7.60;6.95;;;33.00;48.90;;;33.62;32.37;95411.97;5037818;28;20736;-68
2023/09/02 09:36:35;;;;;;;13.20;7.07;;;32.90;49.10;;;33.69;33.43;95415.25;5030823;28;20292;-64
2023/09/02 09:39:03;;;;;;;11.45;6.38;;;32.90;49.40;;;33.74;32.84;95398.91;5035470;28;20220;-64
2023/09/02 09:41:32;;;;;;;9.40;6.18;;;33.00;49.30;;;33.76;32.66;95404.91;5040982;28;20580;-63
2023/09/02 09:44:07;;;;;;;11.75;5.85;;;33.00;49.40;;;33.68;32.74;95400.81;5036029;28;20229;-58
2023/09/02 09:46:36;;;;;;;7.22;6.57;;;32.90;48.50;;;33.59;32.35;95397.78;5034706;28;20657;-64
2023/09/02 09:49:03;;;;;;;7.22;6.53;;;32.80;48.70;;;33.55;32.95;95396.69;5039641;28;20232;-63
2023/09/02 09:51:31;;;;;;;9.90;6.88;;;32.80;49.20;;;33.57;32.75;95399.16;5034874;28;20208;-64
2023/09/02 09:53:58;;;;;;;7.05;6.53;;;32.80;49.10;;;33.51;32.98;95398.34;5033678;28;20247;-59
2023/09/02 09:56:25;;;;;;;6.82;6.30;;;32.80;48.70;;;33.46;33.08;95394.78;5039582;28;20661;-62
2023/09/02 09:58:55;;;;;;;7.40;6.55;;;32.80;49.20;;;33.39;32.76;95398.59;5033683;28;20231;-58
2023/09/02 10:01:25;;;;;;;7.75;7.05;;;32.70;49.30;;;33.37;32.95;95402.69;5036218;28;20288;-58
2023/09/02 10:03:54;;;;;;;8.90;6.82;;;32.60;49.40;;;33.35;32.92;95396.69;5042683;28;21208;-58
2023/09/02 10:06:22;;;;;;;16.98;8.77;;;32.60;49.00;;;33.45;32.97;95391.25;5040533;28;20290;-67
2023/09/02 10:08:53;;;;;;;19.30;8.55;;;32.70;49.40;;;33.59;34.00;95386.88;5043440;28;20239;-57
2023/09/02 10:11:22;;;;;;;16.25;8.77;;;32.80;50.40;;;33.75;33.70;95384.19;5034186;28;20718;-56
2023/09/02 10:13:53;;;;;;;10.23;6.55;;;32.90;50.50;;;33.87;33.77;95390.16;5038574;28;20461;-56